TimeCAT,TemperatureF,Dew PointF,Humidity,Sea Level PressureIn,VisibilityMPH,Wind Direction,Wind SpeedMPH,Gust SpeedMPH,PrecipitationIn,Events,Conditions,WindDirDegrees,DateUTC
6:00 AM,-9999,-9999,N/A,29.92,-9999.0,West,5.8,-,N/A,,Clear,270,2013-02-20 04:00:00
7:00 AM,71.6,64.4,78,29.95,-9999.0,WSW,3.5,-,N/A,,Clear,250,2013-02-20 05:00:00
8:00 AM,74,65,67,,6,WSW,8.1,,,,Partly Cloudy,250,2013-02-20 06:00:00
8:00 AM,73.4,66.2,78,29.95,-9999.0,WSW,8.1,-,N/A,,Clear,250,2013-02-20 06:00:00
9:00 AM,78.8,64.4,61,29.98,-9999.0,SW,11.5,-,N/A,,Clear,230,2013-02-20 07:00:00
10:00 AM,86.0,68.0,55,29.98,-9999.0,SW,9.2,-,N/A,,Clear,230,2013-02-20 08:00:00
11:00 AM,89.6,66.2,46,29.98,-9999.0,WSW,8.1,-,N/A,,Clear,250,2013-02-20 09:00:00
12:00 PM,93.2,62.6,36,29.95,-9999.0,West,8.1,-,N/A,,Clear,260,2013-02-20 10:00:00
1:00 PM,96.8,59.0,28,29.92,6.2,WNW,5.8,-,N/A,,Partly Cloudy,290,2013-02-20 11:00:00
2:00 PM,96.8,60.8,30,29.89,6.2,NE,3.5,-,N/A,,Partly Cloudy,50,2013-02-20 12:00:00
3:00 PM,96.8,60.8,30,29.86,6.2,North,6.9,-,N/A,,Partly Cloudy,350,2013-02-20 13:00:00
4:00 PM,96.8,62.6,32,29.86,6.2,Variable,1.2,-,N/A,,Partly Cloudy,0,2013-02-20 14:00:00
5:00 PM,96.8,62.6,32,29.83,6.2,NNE,6.9,-,N/A,,Partly Cloudy,20,2013-02-20 15:00:00
6:00 PM,87.8,62.6,43,29.86,6.2,ESE,16.1,-,N/A,Thunderstorm,Thunderstorm,120,2013-02-20 16:00:00
7:00 PM,89.6,62.6,40,29.83,6.2,North,3.5,-,N/A,,Partly Cloudy,10,2013-02-20 17:00:00
8:00 PM,87,64,35,,6,WSW,1.2,,,,Scattered Clouds,250,2013-02-20 18:00:00
8:00 PM,87.8,64.4,46,29.86,6.2,Variable,1.2,-,N/A,,Partly Cloudy,0,2013-02-20 18:00:00
9:00 PM,86.0,64.4,48,29.92,6.2,NE,6.9,-,N/A,,Scattered Clouds,50,2013-02-20 19:00:00
10:00 PM,84.2,62.6,48,29.95,6.2,South,10.4,-,N/A,Thunderstorm,Thunderstorm,170,2013-02-20 20:00:00
11:00 PM,78.8,69.8,74,30.01,6.2,SSE,4.6,-,N/A,Thunderstorm,Thunderstorm,150,2013-02-20 21:00:00